Time;durP1;ratioP1;P1;durP2;ratioP2;P2;SDS_P1;SDS_P2;PMS_P1;PMS_P2;Temp;Humidity;BMP_temperature;BMP_pressure;BME280_temperature;BME280_humidity;BME280_pressure;Samples;Min_cycle;Max_cycle;Signal;HPM_P1;HPM_P2
2023/10/31 00:02:17;;;;;;;;;;;16.90;71.00;;;;;;5090968;28;20020;-68
2023/10/31 00:04:42;;;;;;;;;;;16.90;71.00;;;;;;5091194;28;19921;-68
2023/10/31 00:07:08;;;;;;;;;;;16.90;71.00;;;;;;5091159;28;19932;-68
2023/10/31 00:09:33;;;;;;;;;;;16.90;71.00;;;;;;5091313;28;20413;-68
2023/10/31 00:11:59;;;;;;;;;;;16.90;71.00;;;;;;5090899;28;19920;-68
2023/10/31 00:14:25;;;;;;;;;;;16.90;71.10;;;;;;5091189;28;20416;-68
2023/10/31 00:16:50;;;;;;;;;;;16.90;71.10;;;;;;5090779;28;19927;-68
2023/10/31 00:19:16;;;;;;;;;;;16.90;71.10;;;;;;5090863;28;19924;-68
2023/10/31 00:21:41;;;;;;;;;;;16.90;71.20;;;;;;5091105;28;20291;-68
2023/10/31 00:24:07;;;;;;;;;;;16.90;71.20;;;;;;5092232;28;19920;-68
2023/10/31 00:26:32;;;;;;;;;;;16.80;71.10;;;;;;5091218;28;19927;-68
2023/10/31 00:28:58;;;;;;;;;;;16.80;71.20;;;;;;5090734;28;20401;-68
2023/10/31 00:31:23;;;;;;;;;;;16.80;71.20;;;;;;5090795;28;19920;-68
2023/10/31 00:33:49;;;;;;;;;;;16.90;71.30;;;;;;5090923;28;19920;-68
2023/10/31 00:36:14;;;;;;;;;;;16.80;71.30;;;;;;5092011;28;19924;-68
2023/10/31 00:38:40;;;;;;;;;;;16.80;71.30;;;;;;5091553;28;19999;-68
2023/10/31 00:41:05;;;;;;;;;;;16.80;71.30;;;;;;5090588;28;19924;-68
2023/10/31 00:43:30;;;;;;;;;;;16.80;71.30;;;;;;5090810;28;19920;-68
2023/10/31 00:45:56;;;;;;;;;;;16.70;71.40;;;;;;5091848;28;20374;-68
2023/10/31 00:48:21;;;;;;;;;;;16.80;71.40;;;;;;5095580;28;19985;-68
2023/10/31 00:50:47;;;;;;;;;;;16.80;71.50;;;;;;5094592;28;19921;-68
2023/10/31 00:53:14;;;;;;;;;;;16.80;71.60;;;;;;5094032;28;20382;-68
2023/10/31 00:55:40;;;;;;;;;;;16.80;71.50;;;;;;5077104;28;19920;-68
2023/10/31 00:58:05;;;;;;;;;;;16.80;71.60;;;;;;5094013;28;20329;-68
2023/10/31 01:00:31;;;;;;;;;;;16.80;71.60;;;;;;5094279;28;20011;-68
2023/10/31 01:02:57;;;;;;;;;;;16.70;71.50;;;;;;5095305;28;20146;-68
2023/10/31 01:05:22;;;;;;;;;;;16.80;71.60;;;;;;5095196;28;19926;-68
2023/10/31 01:07:48;;;;;;;;;;;16.70;71.60;;;;;;5094122;28;19926;-68
2023/10/31 01:10:13;;;;;;;;;;;16.80;71.70;;;;;;5095344;28;20007;-68
2023/10/31 01:12:39;;;;;;;;;;;16.70;71.60;;;;;;5094169;28;19920;-68
2023/10/31 01:15:04;;;;;;;;;;;16.70;71.60;;;;;;5095050;28;19924;-69
2023/10/31 01:17:30;;;;;;;;;;;16.70;71.70;;;;;;5094930;28;19920;-68
2023/10/31 01:19:55;;;;;;;;;;;16.70;71.60;;;;;;5093503;28;19924;-68
2023/10/31 01:22:21;;;;;;;;;;;16.70;71.60;;;;;;5093944;28;19920;-68
2023/10/31 01:24:46;;;;;;;;;;;16.70;71.60;;;;;;5093499;28;19970;-69
2023/10/31 01:27:12;;;;;;;;;;;16.60;71.60;;;;;;5094847;28;19974;-69
2023/10/31 01:29:37;;;;;;;;;;;16.70;71.70;;;;;;5093969;28;19971;-68
2023/10/31 01:32:03;;;;;;;;;;;16.60;71.60;;;;;;5093386;28;19920;-68
2023/10/31 01:34:29;;;;;;;;;;;16.60;71.60;;;;;;5094785;28;20022;-68
2023/10/31 01:36:54;;;;;;;;;;;16.60;71.60;;;;;;5093340;28;19985;-68
2023/10/31 01:39:20;;;;;;;;;;;16.60;71.60;;;;;;5092980;28;19928;-69
2023/10/31 01:41:46;;;;;;;;;;;16.60;71.60;;;;;;5093363;28;19974;-68
2023/10/31 01:44:11;;;;;;;;;;;16.60;71.70;;;;;;5093482;28;19920;-68
2023/10/31 01:46:37;;;;;;;;;;;16.60;71.70;;;;;;5094473;28;19935;-68
2023/10/31 01:49:03;;;;;;;;;;;16.60;71.70;;;;;;5093094;28;19954;-68
2023/10/31 01:51:29;;;;;;;;;;;16.60;71.70;;;;;;5094350;28;19924;-68
2023/10/31 01:53:55;;;;;;;;;;;16.60;71.60;;;;;;5093027;28;19926;-68
2023/10/31 01:56:21;;;;;;;;;;;16.60;71.60;;;;;;5094108;28;19935;-68
2023/10/31 01:58:47;;;;;;;;;;;16.60;71.60;;;;;;5093014;28;19924;-68
2023/10/31 02:01:12;;;;;;;;;;;16.60;71.60;;;;;;5094104;28;19959;-68
2023/10/31 02:03:38;;;;;;;;;;;16.50;71.60;;;;;;5092814;28;20026;-68
2023/10/31 02:06:04;;;;;;;;;;;16.50;71.60;;;;;;5094342;28;19920;-68
2023/10/31 02:08:29;;;;;;;;;;;16.50;71.60;;;;;;5092693;28;19926;-68
2023/10/31 02:10:55;;;;;;;;;;;16.50;71.60;;;;;;5092904;28;19924;-68
2023/10/31 02:13:20;;;;;;;;;;;16.50;71.60;;;;;;5094057;28;19942;-68
2023/10/31 02:15:46;;;;;;;;;;;16.50;71.50;;;;;;5092870;28;19920;-68
2023/10/31 02:18:12;;;;;;;;;;;16.50;71.60;;;;;;5092546;28;19924;-68
2023/10/31 02:20:37;;;;;;;;;;;16.50;71.60;;;;;;5093940;28;19920;-68
2023/10/31 02:23:03;;;;;;;;;;;16.50;71.60;;;;;;5092653;28;20322;-69
2023/10/31 02:25:29;;;;;;;;;;;16.50;71.50;;;;;;5092409;28;19927;-68
2023/10/31 02:27:54;;;;;;;;;;;16.50;71.50;;;;;;5092190;28;19924;-68
2023/10/31 02:30:20;;;;;;;;;;;16.50;71.50;;;;;;5092632;28;19920;-68
2023/10/31 02:32:46;;;;;;;;;;;16.50;71.50;;;;;;5093463;28;19920;-68
2023/10/31 02:35:11;;;;;;;;;;;16.50;71.50;;;;;;5092192;28;20394;-68
2023/10/31 02:37:37;;;;;;;;;;;16.50;71.50;;;;;;5091875;28;20053;-68
2023/10/31 02:40:02;;;;;;;;;;;16.50;71.50;;;;;;5093253;28;19931;-68
2023/10/31 02:42:28;;;;;;;;;;;16.50;71.40;;;;;;5092224;28;20415;-68
2023/10/31 02:44:53;;;;;;;;;;;16.50;71.40;;;;;;5092274;28;19920;-68
2023/10/31 02:47:19;;;;;;;;;;;16.50;71.40;;;;;;5093301;28;19920;-68
2023/10/31 02:49:45;;;;;;;;;;;16.50;71.40;;;;;;5092249;28;20282;-68
2023/10/31 02:52:10;;;;;;;;;;;16.50;71.40;;;;;;5092184;28;19923;-68
2023/10/31 02:54:36;;;;;;;;;;;16.50;71.40;;;;;;5091774;28;19920;-68
2023/10/31 02:57:02;;;;;;;;;;;16.50;71.40;;;;;;5092003;28;19924;-68
2023/10/31 02:59:27;;;;;;;;;;;16.50;71.40;;;;;;5091708;28;19935;-68
2023/10/31 03:01:53;;;;;;;;;;;16.40;71.40;;;;;;5092079;28;19920;-68
2023/10/31 03:04:19;;;;;;;;;;;16.50;71.50;;;;;;5091946;28;20403;-68
2023/10/31 03:06:44;;;;;;;;;;;16.50;71.50;;;;;;5093017;28;19932;-68
2023/10/31 03:09:10;;;;;;;;;;;16.40;71.50;;;;;;5091242;28;20359;-68
2023/10/31 03:11:35;;;;;;;;;;;16.40;71.50;;;;;;5091861;28;19927;-68
2023/10/31 03:14:01;;;;;;;;;;;16.40;71.50;;;;;;5092734;28;20256;-67
2023/10/31 03:16:26;;;;;;;;;;;16.40;71.50;;;;;;5091518;28;20398;-68
2023/10/31 03:18:52;;;;;;;;;;;16.40;71.50;;;;;;5091455;28;19924;-68
2023/10/31 03:21:17;;;;;;;;;;;16.40;71.60;;;;;;5092746;28;20318;-68
2023/10/31 03:23:46;;;;;;;;;;;16.40;71.60;;;;;;5091651;28;19927;-67
2023/10/31 03:26:11;;;;;;;;;;;16.40;71.60;;;;;;5091409;28;20005;-68
2023/10/31 03:28:37;;;;;;;;;;;16.40;71.60;;;;;;5091475;28;19974;-68
2023/10/31 03:31:02;;;;;;;;;;;16.40;72.30;;;;;;5091635;28;19920;-68
2023/10/31 03:33:28;;;;;;;;;;;16.30;71.60;;;;;;5092586;28;19924;-68
2023/10/31 03:35:53;;;;;;;;;;;16.30;71.60;;;;;;5092688;28;19920;-68
2023/10/31 03:38:19;;;;;;;;;;;16.40;71.60;;;;;;5091102;28;20427;-68
2023/10/31 03:40:44;;;;;;;;;;;16.30;71.60;;;;;;5091095;28;20403;-68
2023/10/31 03:43:10;;;;;;;;;;;16.30;71.60;;;;;;5091431;28;19920;-68
2023/10/31 03:45:35;;;;;;;;;;;16.30;71.60;;;;;;5091421;28;20015;-68
2023/10/31 03:48:01;;;;;;;;;;;16.30;71.60;;;;;;5092434;28;19920;-68
2023/10/31 03:50:27;;;;;;;;;;;16.30;71.60;;;;;;5092350;28;19924;-68
2023/10/31 03:52:52;;;;;;;;;;;16.30;71.70;;;;;;5092508;28;20440;-68
2023/10/31 03:55:18;;;;;;;;;;;16.30;71.70;;;;;;5091296;28;20400;-68
2023/10/31 03:57:44;;;;;;;;;;;16.30;71.70;;;;;;5092406;28;20379;-68
2023/10/31 04:00:11;;;;;;;;;;;16.30;71.60;;;;;;5090820;28;19924;-68
2023/10/31 04:02:37;;;;;;;;;;;16.30;71.60;;;;;;5091299;28;19920;-68
2023/10/31 04:05:02;;;;;;;;;;;16.30;71.60;;;;;;5090944;28;20007;-68
2023/10/31 04:07:28;;;;;;;;;;;16.30;71.60;;;;;;5092238;28;19924;-68
2023/10/31 04:09:54;;;;;;;;;;;16.30;71.60;;;;;;5091282;28;19920;-68
2023/10/31 04:12:20;;;;;;;;;;;16.30;71.60;;;;;;5090904;28;19920;-68
2023/10/31 04:14:45;;;;;;;;;;;16.30;71.60;;;;;;5090902;28;19989;-68
2023/10/31 04:17:11;;;;;;;;;;;16.30;71.60;;;;;;5090701;28;20003;-68
2023/10/31 04:19:36;;;;;;;;;;;16.30;71.60;;;;;;5092256;28;19967;-68
2023/10/31 04:22:02;;;;;;;;;;;16.30;71.60;;;;;;5095347;28;20379;-68
2023/10/31 04:24:27;;;;;;;;;;;16.30;71.50;;;;;;5094734;28;19920;-68
2023/10/31 04:26:53;;;;;;;;;;;16.30;71.50;;;;;;5094635;28;20015;-68
2023/10/31 04:29:18;;;;;;;;;;;16.30;71.50;;;;;;5095018;28;19986;-68
2023/10/31 04:31:44;;;;;;;;;;;16.30;71.60;;;;;;5094525;28;20340;-68
2023/10/31 04:34:09;;;;;;;;;;;16.20;71.50;;;;;;5096039;28;19920;-68
2023/10/31 04:36:35;;;;;;;;;;;16.30;71.60;;;;;;5094789;28;20368;-68
2023/10/31 04:39:00;;;;;;;;;;;16.30;71.60;;;;;;5094251;28;19924;-68
2023/10/31 04:41:26;;;;;;;;;;;16.20;71.60;;;;;;5095849;28;20394;-68
2023/10/31 04:43:51;;;;;;;;;;;16.20;71.70;;;;;;5094423;28;19927;-68
2023/10/31 04:46:17;;;;;;;;;;;16.20;71.70;;;;;;5095463;28;20058;-68
2023/10/31 04:48:42;;;;;;;;;;;16.20;71.70;;;;;;5095614;28;20386;-68
2023/10/31 04:51:08;;;;;;;;;;;16.20;71.70;;;;;;5094592;28;19928;-68
2023/10/31 04:53:34;;;;;;;;;;;16.20;71.80;;;;;;5095552;28;20292;-68
2023/10/31 04:56:00;;;;;;;;;;;16.20;71.80;;;;;;5095536;28;19920;-68
2023/10/31 04:58:26;;;;;;;;;;;16.10;71.80;;;;;;5095301;28;20006;-68
2023/10/31 05:00:51;;;;;;;;;;;16.20;71.90;;;;;;5094300;28;19935;-68
2023/10/31 05:03:17;;;;;;;;;;;16.20;71.90;;;;;;5095385;28;20234;-68
2023/10/31 05:05:43;;;;;;;;;;;16.10;71.90;;;;;;5093944;28;19920;-68
2023/10/31 05:08:08;;;;;;;;;;;16.10;71.90;;;;;;5095174;28;20007;-68
2023/10/31 05:10:34;;;;;;;;;;;16.10;72.70;;;;;;5094142;28;20374;-68
2023/10/31 05:13:02;;;;;;;;;;;16.10;71.90;;;;;;5093790;28;19920;-68
2023/10/31 05:15:27;;;;;;;;;;;16.10;71.90;;;;;;5095028;28;19942;-68
2023/10/31 05:17:53;;;;;;;;;;;16.10;72.00;;;;;;5093421;28;19920;-68
2023/10/31 05:20:19;;;;;;;;;;;16.00;72.00;;;;;;5094928;28;19920;-68
2023/10/31 05:22:44;;;;;;;;;;;16.10;72.00;;;;;;5093542;28;19920;-67
2023/10/31 05:25:10;;;;;;;;;;;16.00;72.00;;;;;;5094879;28;19920;-68
2023/10/31 05:27:35;;;;;;;;;;;16.10;72.10;;;;;;5127912;27;19920;-68
2023/10/31 05:30:01;;;;;;;;;;;16.10;72.10;;;;;;5093801;28;20395;-68
2023/10/31 05:32:26;;;;;;;;;;;16.10;72.10;;;;;;5094841;28;19946;-68
2023/10/31 05:34:52;;;;;;;;;;;16.10;72.20;;;;;;5093373;28;19934;-68
2023/10/31 05:37:17;;;;;;;;;;;16.00;72.10;;;;;;5094652;28;19970;-68
2023/10/31 05:39:43;;;;;;;;;;;16.00;72.20;;;;;;5094498;28;19924;-68
2023/10/31 05:42:08;;;;;;;;;;;16.00;72.20;;;;;;5093239;28;20199;-67
2023/10/31 05:44:34;;;;;;;;;;;16.00;72.20;;;;;;5094486;28;19920;-67
2023/10/31 05:46:59;;;;;;;;;;;16.00;72.30;;;;;;5093150;28;19952;-68
2023/10/31 05:49:25;;;;;;;;;;;15.90;72.20;;;;;;5093040;28;19969;-68
2023/10/31 05:51:51;;;;;;;;;;;16.00;72.30;;;;;;5093074;28;19924;-68
2023/10/31 05:54:17;;;;;;;;;;;16.00;72.30;;;;;;5093250;28;20271;-68
2023/10/31 05:56:42;;;;;;;;;;;16.00;72.40;;;;;;5093353;28;19920;-68
2023/10/31 05:59:08;;;;;;;;;;;16.00;72.40;;;;;;5092938;28;19924;-68
2023/10/31 06:01:33;;;;;;;;;;;16.00;72.30;;;;;;5093173;28;19927;-68
2023/10/31 06:03:59;;;;;;;;;;;15.90;72.30;;;;;;5092645;28;19920;-68
2023/10/31 06:06:24;;;;;;;;;;;15.90;72.30;;;;;;5094263;28;19927;-67
2023/10/31 06:08:50;;;;;;;;;;;15.90;72.30;;;;;;5092712;28;19920;-68
2023/10/31 06:11:15;;;;;;;;;;;15.90;72.40;;;;;;5093887;28;19973;-68
2023/10/31 06:13:41;;;;;;;;;;;15.90;72.40;;;;;;5093244;28;19969;-68
2023/10/31 06:16:07;;;;;;;;;;;15.90;72.40;;;;;;5092468;28;19926;-68
2023/10/31 06:18:34;;;;;;;;;;;15.90;72.30;;;;;;5092275;28;19924;-68
2023/10/31 06:21:00;;;;;;;;;;;15.90;72.30;;;;;;5092740;28;20015;-67
2023/10/31 06:23:25;;;;;;;;;;;15.90;72.30;;;;;;5092794;28;20057;-68
2023/10/31 06:25:50;;;;;;;;;;;15.90;72.30;;;;;;5091810;28;19920;-68
2023/10/31 06:28:16;;;;;;;;;;;15.90;72.30;;;;;;5090421;28;20009;-69
2023/10/31 06:30:41;;;;;;;;;;;15.90;72.40;;;;;;5119618;27;20298;-68
2023/10/31 06:33:08;;;;;;;;;;;15.90;72.40;;;;;;5092512;28;20454;-68
2023/10/31 06:35:34;;;;;;;;;;;15.90;72.40;;;;;;5090888;28;19934;-72
2023/10/31 06:38:01;;;;;;;;;;;15.90;72.40;;;;;;5090302;28;20689;-72
2023/10/31 06:40:26;;;;;;;;;;;15.90;72.40;;;;;;5085154;28;19931;-68
2023/10/31 06:42:52;;;;;;;;;;;16.20;72.50;;;;;;5087251;28;19920;-68
2023/10/31 06:45:17;;;;;;;;;;;16.80;71.10;;;;;;5115919;27;20361;-71
2023/10/31 06:47:43;;;;;;;;;;;17.50;69.00;;;;;;5090341;28;19927;-72
2023/10/31 06:50:09;;;;;;;;;;;18.20;66.70;;;;;;5090448;28;19981;-68
2023/10/31 06:52:34;;;;;;;;;;;18.90;64.50;;;;;;5090323;28;19925;-68
2023/10/31 06:55:00;;;;;;;;;;;19.70;62.20;;;;;;5099965;28;19920;-68
2023/10/31 06:57:26;;;;;;;;;;;20.40;60.30;;;;;;5089385;28;19967;-68
2023/10/31 06:59:51;;;;;;;;;;;21.10;58.70;;;;;;5087599;28;19928;-67
2023/10/31 07:02:17;;;;;;;;;;;21.60;57.20;;;;;;5091518;28;19924;-67
2023/10/31 07:04:43;;;;;;;;;;;22.20;55.90;;;;;;5092051;28;19927;-68
2023/10/31 07:07:08;;;;;;;;;;;23.00;54.40;;;;;;5086290;28;19997;-68
2023/10/31 07:09:34;;;;;;;;;;;23.60;52.70;;;;;;5084791;28;19978;-67
2023/10/31 07:11:59;;;;;;;;;;;24.10;51.70;;;;;;5088867;28;20026;-68
2023/10/31 07:14:25;;;;;;;;;;;24.40;50.40;;;;;;5089171;28;19923;-70
2023/10/31 07:16:50;;;;;;;;;;;24.50;50.10;;;;;;5090124;28;19927;-70
2023/10/31 07:19:16;;;;;;;;;;;24.40;49.90;;;;;;5076861;28;19919;-69
2023/10/31 07:21:41;;;;;;;;;;;24.40;49.90;;;;;;5068015;28;19928;-67
2023/10/31 07:24:08;;;;;;;;;;;24.50;49.70;;;;;;5072346;28;20610;-69
2023/10/31 07:26:34;;;;;;;;;;;24.60;49.70;;;;;;5076217;28;19927;-68
2023/10/31 07:29:00;;;;;;;;;;;24.90;49.50;;;;;;5077573;28;20358;-72
2023/10/31 07:31:25;;;;;;;;;;;25.00;48.70;;;;;;5079200;28;19923;-66
2023/10/31 07:33:51;;;;;;;;;;;25.00;48.80;;;;;;5073123;28;19947;-70
2023/10/31 07:36:16;;;;;;;;;;;25.00;48.90;;;;;;5078112;28;19959;-69
2023/10/31 07:38:42;;;;;;;;;;;25.00;48.70;;;;;;5076030;28;20186;-69
2023/10/31 07:41:07;;;;;;;;;;;24.80;48.70;;;;;;5070378;28;19924;-69
2023/10/31 07:43:33;;;;;;;;;;;24.60;49.00;;;;;;5075163;28;19979;-69
2023/10/31 07:45:59;;;;;;;;;;;24.30;49.50;;;;;;5107309;28;19921;-68
2023/10/31 07:48:24;;;;;;;;;;;24.00;50.10;;;;;;5073861;28;19946;-69
2023/10/31 07:50:50;;;;;;;;;;;23.80;50.60;;;;;;5107280;28;19924;-68
2023/10/31 07:53:15;;;;;;;;;;;23.50;51.20;;;;;;5073988;28;20126;-67
2023/10/31 07:55:41;;;;;;;;;;;23.50;51.70;;;;;;5078340;28;19923;-68
2023/10/31 07:58:06;;;;;;;;;;;23.70;51.80;;;;;;5077646;28;20441;-68
2023/10/31 08:00:34;;;;;;;;;;;23.90;51.50;;;;;;5082160;28;19960;-67
2023/10/31 08:03:00;;;;;;;;;;;24.00;51.40;;;;;;5084020;28;19924;-68
2023/10/31 08:05:25;;;;;;;;;;;24.00;51.10;;;;;;5077819;28;19925;-67
2023/10/31 08:07:51;;;;;;;;;;;24.10;51.00;;;;;;5086256;28;19931;-67
2023/10/31 08:10:16;;;;;;;;;;;24.10;51.10;;;;;;5108739;27;19920;-67
2023/10/31 08:12:42;;;;;;;;;;;24.00;51.30;;;;;;5083681;28;19920;-67
2023/10/31 08:15:08;;;;;;;;;;;23.80;51.60;;;;;;5076471;28;19924;-68
2023/10/31 08:17:34;;;;;;;;;;;23.60;51.90;;;;;;5084849;28;20001;-68
2023/10/31 08:19:59;;;;;;;;;;;23.50;52.40;;;;;;5078663;28;20321;-67
2023/10/31 08:22:25;;;;;;;;;;;23.20;52.80;;;;;;5079485;28;20011;-67
2023/10/31 08:24:50;;;;;;;;;;;23.00;53.50;;;;;;5075097;28;20026;-65
2023/10/31 08:27:15;;;;;;;;;;;22.80;53.90;;;;;;5076619;28;20295;-67
2023/10/31 08:29:41;;;;;;;;;;;22.70;54.30;;;;;;5074025;28;19978;-67
2023/10/31 08:32:07;;;;;;;;;;;22.60;54.60;;;;;;5075486;28;20038;-68
2023/10/31 08:34:32;;;;;;;;;;;22.50;54.80;;;;;;5075929;28;19973;-67
2023/10/31 08:36:59;;;;;;;;;;;22.20;55.00;;;;;;5081891;28;19924;-67
2023/10/31 08:39:24;;;;;;;;;;;21.90;55.70;;;;;;5081111;28;19963;-67
2023/10/31 08:41:54;;;;;;;;;;;21.70;56.30;;;;;;5078035;28;20287;-67
2023/10/31 08:44:19;;;;;;;;;;;21.50;56.90;;;;;;5075033;28;19931;-67
2023/10/31 08:46:45;;;;;;;;;;;21.40;57.10;;;;;;5079369;28;19928;-69
2023/10/31 08:49:10;;;;;;;;;;;21.40;57.30;;;;;;5080511;28;19970;-68
2023/10/31 08:51:36;;;;;;;;;;;21.30;57.40;;;;;;5109082;27;20384;-66
2023/10/31 08:54:01;;;;;;;;;;;21.30;57.60;;;;;;5077163;28;19928;-65
2023/10/31 08:56:27;;;;;;;;;;;21.10;57.80;;;;;;5079088;28;20353;-73
2023/10/31 08:58:53;;;;;;;;;;;20.90;59.00;;;;;;5079251;28;20296;-69
2023/10/31 09:01:19;;;;;;;;;;;20.70;58.60;;;;;;5076450;28;19977;-69
2023/10/31 09:03:44;;;;;;;;;;;20.50;59.20;;;;;;5081862;28;20431;-69
2023/10/31 09:06:10;;;;;;;;;;;20.40;59.70;;;;;;5079476;28;19936;-70
2023/10/31 09:08:36;;;;;;;;;;;20.40;60.30;;;;;;5077967;28;20342;-69
2023/10/31 09:11:03;;;;;;;;;;;20.20;60.20;;;;;;5080878;28;20271;-67
2023/10/31 09:13:29;;;;;;;;;;;20.10;60.60;;;;;;5076237;28;19924;-69
2023/10/31 09:15:54;;;;;;;;;;;20.00;60.90;;;;;;5075958;28;19925;-68
2023/10/31 09:18:20;;;;;;;;;;;19.90;61.40;;;;;;5083836;28;21812;-70
2023/10/31 09:20:46;;;;;;;;;;;19.90;61.60;;;;;;5079476;28;20361;-68
2023/10/31 09:23:11;;;;;;;;;;;19.80;61.80;;;;;;5080418;28;19925;-70
2023/10/31 09:25:37;;;;;;;;;;;19.70;61.80;;;;;;5081381;28;19927;-71
2023/10/31 09:28:02;;;;;;;;;;;19.70;61.80;;;;;;5079232;28;19927;-69
2023/10/31 09:30:28;;;;;;;;;;;19.60;62.00;;;;;;5080614;28;19930;-68
2023/10/31 09:32:53;;;;;;;;;;;19.50;62.20;;;;;;5079044;28;20664;-72
2023/10/31 09:35:19;;;;;;;;;;;19.50;62.60;;;;;;5076021;28;19921;-69
2023/10/31 09:37:48;;;;;;;;;;;19.40;62.60;;;;;;5080150;28;19928;-68
2023/10/31 09:40:14;;;;;;;;;;;19.40;62.90;;;;;;5082746;28;20269;-68
2023/10/31 09:42:39;;;;;;;;;;;19.30;63.00;;;;;;5083272;28;19939;-68
2023/10/31 09:45:05;;;;;;;;;;;19.30;63.40;;;;;;5084901;28;20393;-68
2023/10/31 09:47:31;;;;;;;;;;;19.20;63.50;;;;;;5083127;28;20025;-68
2023/10/31 09:49:58;;;;;;;;;;;19.20;63.60;;;;;;5082733;28;19920;-67
2023/10/31 09:52:23;;;;;;;;;;;19.10;63.70;;;;;;5090837;27;19974;-67
2023/10/31 09:54:49;;;;;;;;;;;19.10;64.00;;;;;;5076996;28;20442;-68
2023/10/31 09:57:17;;;;;;;;;;;19.10;64.30;;;;;;5076814;28;20225;-67
2023/10/31 09:59:42;;;;;;;;;;;19.20;64.50;;;;;;5082126;28;20295;-68
2023/10/31 10:02:08;;;;;;;;;;;19.50;64.30;;;;;;5079898;28;19920;-66
2023/10/31 10:04:34;;;;;;;;;;;19.70;64.10;;;;;;5073752;28;19970;-68
2023/10/31 10:07:01;;;;;;;;;;;20.30;63.50;;;;;;5080619;28;19993;-68
2023/10/31 10:09:27;;;;;;;;;;;20.70;62.40;;;;;;5081886;28;20027;-69
2023/10/31 10:11:53;;;;;;;;;;;21.30;60.90;;;;;;5077169;28;20840;-68
2023/10/31 10:14:18;;;;;;;;;;;21.90;58.90;;;;;;5080688;28;19920;-68
2023/10/31 10:16:44;;;;;;;;;;;22.30;58.30;;;;;;5071757;28;19931;-67
2023/10/31 10:19:19;;;;;;;;;;;22.70;57.40;;;;;;5084316;28;20291;-66
2023/10/31 10:24:27;;;;;;;;;;;23.60;55.50;;;;;;5078660;27;20133;-66
2023/10/31 10:26:53;;;;;;;;;;;24.00;54.50;;;;;;5075525;28;20242;-67
2023/10/31 10:29:18;;;;;;;;;;;24.40;53.60;;;;;;5083305;28;20513;-65
2023/10/31 10:31:45;;;;;;;;;;;24.50;52.80;;;;;;5107748;28;19921;-66
2023/10/31 10:34:13;;;;;;;;;;;24.60;52.50;;;;;;5080363;28;20287;-66
2023/10/31 10:36:39;;;;;;;;;;;24.90;52.20;;;;;;5075729;28;19929;-66
2023/10/31 10:39:05;;;;;;;;;;;25.20;51.90;;;;;;5102375;28;20535;-64
2023/10/31 10:41:33;;;;;;;;;;;25.30;51.00;;;;;;5072863;28;20476;-66
2023/10/31 10:44:05;;;;;;;;;;;25.10;50.20;;;;;;5104069;28;19932;-64
2023/10/31 10:46:32;;;;;;;;;;;24.70;50.50;;;;;;5073957;28;19933;-64
2023/10/31 10:48:58;;;;;;;;;;;24.50;50.70;;;;;;5065029;28;19944;-65
2023/10/31 10:51:28;;;;;;;;;;;24.40;51.10;;;;;;5068200;28;19920;-68
2023/10/31 10:53:57;;;;;;;;;;;24.30;51.80;;;;;;5071069;28;20287;-68
2023/10/31 10:56:28;;;;;;;;;;;24.10;51.80;;;;;;5074202;28;19964;-66
2023/10/31 10:59:03;;;;;;;;;;;24.00;52.40;;;;;;5076820;28;20291;-67
2023/10/31 11:01:30;;;;;;;;;;;23.80;52.60;;;;;;5069233;28;19924;-67
2023/10/31 11:03:56;;;;;;;;;;;23.80;52.60;;;;;;5068257;28;19960;-67
2023/10/31 11:06:22;;;;;;;;;;;23.70;52.90;;;;;;5069210;28;20020;-69
2023/10/31 11:08:49;;;;;;;;;;;23.70;53.30;;;;;;5071176;28;20465;-67
2023/10/31 11:11:16;;;;;;;;;;;23.70;53.00;;;;;;5082398;28;20030;-67
2023/10/31 11:13:43;;;;;;;;;;;24.00;52.80;;;;;;5073809;28;19924;-67
2023/10/31 11:16:13;;;;;;;;;;;24.20;52.30;;;;;;5074407;28;19936;-67
2023/10/31 11:18:39;;;;;;;;;;;24.40;52.10;;;;;;5070658;28;20011;-67
2023/10/31 11:21:04;;;;;;;;;;;24.60;51.90;;;;;;5074045;28;20011;-66
2023/10/31 11:23:30;;;;;;;;;;;24.80;51.20;;;;;;5102301;28;20609;-68
2023/10/31 11:25:55;;;;;;;;;;;24.90;51.20;;;;;;5068222;28;19953;-68
2023/10/31 11:28:21;;;;;;;;;;;24.70;50.80;;;;;;5069768;28;19924;-67
2023/10/31 11:30:48;;;;;;;;;;;24.50;51.00;;;;;;5067698;28;20562;-67
2023/10/31 11:33:21;;;;;;;;;;;24.40;51.20;;;;;;5065434;28;20695;-68
2023/10/31 11:35:50;;;;;;;;;;;24.40;51.30;;;;;;5049646;28;19927;-69
2023/10/31 11:38:16;;;;;;;;;;;24.30;51.20;;;;;;5058288;28;19960;-68
2023/10/31 11:41:01;;;;;;;;;;;24.30;51.60;;;;;;5057653;28;20466;-66
2023/10/31 11:43:35;;;;;;;;;;;24.20;51.20;;;;;;5051473;28;19932;-67
2023/10/31 11:46:01;;;;;;;;;;;24.10;51.40;;;;;;5049237;28;19927;-67
2023/10/31 11:48:47;;;;;;;;;;;24.10;52.10;;;;;;5054802;28;19924;-67
2023/10/31 11:51:13;;;;;;;;;;;24.10;52.30;;;;;;5052264;28;19935;-67
2023/10/31 11:53:38;;;;;;;;;;;24.10;52.30;;;;;;5055105;28;19928;-69
2023/10/31 11:56:04;;;;;;;;;;;24.20;52.40;;;;;;5056695;28;19925;-67
2023/10/31 11:58:30;;;;;;;;;;;24.20;52.00;;;;;;5052714;28;20534;-76
2023/10/31 12:01:11;;;;;;;;;;;24.10;52.60;;;;;;5085201;28;19924;-69
2023/10/31 12:03:38;;;;;;;;;;;24.00;52.80;;;;;;5060342;28;19939;-69
2023/10/31 12:06:04;;;;;;;;;;;23.80;53.10;;;;;;5055672;28;19921;-66
2023/10/31 12:11:12;;;;;;;;;;;23.60;54.20;;;;;;5066133;28;19927;-68
2023/10/31 12:13:39;;;;;;;;;;;23.70;54.30;;;;;;5070764;28;20015;-66
2023/10/31 12:16:06;;;;;;;;;;;23.80;54.30;;;;;;5066156;28;19927;-67
2023/10/31 12:18:33;;;;;;;;;;;23.80;54.40;;;;;;5068202;28;19924;-68
2023/10/31 12:20:59;;;;;;;;;;;23.80;54.70;;;;;;5057047;28;20377;-69
2023/10/31 12:23:24;;;;;;;;;;;23.80;54.70;;;;;;5060960;28;19936;-68
2023/10/31 12:25:50;;;;;;;;;;;23.70;54.90;;;;;;5063891;28;19931;-70
2023/10/31 12:28:17;;;;;;;;;;;23.60;54.80;;;;;;5065241;28;19971;-68
2023/10/31 12:30:46;;;;;;;;;;;23.30;54.80;;;;;;5077861;28;19986;-68
2023/10/31 12:33:11;;;;;;;;;;;23.10;55.50;;;;;;5049000;28;19924;-67
2023/10/31 12:35:37;;;;;;;;;;;22.80;55.90;;;;;;5063539;28;19966;-68
2023/10/31 12:38:02;;;;;;;;;;;22.60;56.40;;;;;;5062776;28;19963;-65
2023/10/31 12:40:28;;;;;;;;;;;22.40;57.00;;;;;;5061636;28;20026;-67
2023/10/31 12:42:54;;;;;;;;;;;22.30;57.50;;;;;;5065005;28;19976;-67
2023/10/31 12:45:20;;;;;;;;;;;22.30;58.00;;;;;;5062874;28;19925;-64
2023/10/31 12:48:00;;;;;;;;;;;22.30;57.90;;;;;;5059973;28;19936;-67
2023/10/31 12:50:25;;;;;;;;;;;22.60;57.90;;;;;;5060557;28;19924;-66
2023/10/31 12:52:52;;;;;;;;;;;23.00;57.40;;;;;;5065863;28;19951;-68
2023/10/31 12:55:19;;;;;;;;;;;23.50;56.50;;;;;;5061420;28;19986;-68
2023/10/31 12:57:46;;;;;;;;;;;24.00;55.50;;;;;;5060809;28;19932;-70
2023/10/31 13:00:12;;;;;;;;;;;24.50;54.70;;;;;;5065434;28;20423;-70
2023/10/31 13:02:39;;;;;;;;;;;24.80;53.80;;;;;;5068954;28;19973;-70
2023/10/31 13:05:13;;;;;;;;;;;25.10;53.20;;;;;;5060538;28;19924;-71
2023/10/31 13:07:39;;;;;;;;;;;25.30;52.70;;;;;;5059652;28;19928;-72
2023/10/31 13:10:05;;;;;;;;;;;25.60;52.00;;;;;;5064918;28;19939;-74
2023/10/31 13:12:31;;;;;;;;;;;25.70;51.80;;;;;;5067905;28;19921;-70
2023/10/31 13:14:56;;;;;;;;;;;25.60;51.60;;;;;;5063228;28;19925;-70
2023/10/31 13:17:22;;;;;;;;;;;25.70;51.70;;;;;;5064895;28;20339;-69
2023/10/31 13:19:47;;;;;;;;;;;25.90;51.80;;;;;;5066180;28;20007;-70
2023/10/31 13:22:13;;;;;;;;;;;26.00;51.40;;;;;;5049635;28;19925;-69
2023/10/31 13:24:40;;;;;;;;;;;26.20;51.30;;;;;;5049348;28;19955;-71
2023/10/31 13:27:06;;;;;;;;;;;26.30;51.10;;;;;;5066353;28;20503;-70
2023/10/31 13:29:33;;;;;;;;;;;26.40;51.10;;;;;;5050838;28;20655;-71
2023/10/31 13:31:58;;;;;;;;;;;26.40;50.80;;;;;;5053989;28;19928;-70
2023/10/31 13:34:24;;;;;;;;;;;26.50;50.60;;;;;;5050238;28;19931;-71
2023/10/31 13:36:49;;;;;;;;;;;26.50;50.60;;;;;;5050008;28;19925;-74
2023/10/31 13:39:15;;;;;;;;;;;26.60;50.70;;;;;;5049940;28;19924;-71
2023/10/31 13:41:40;;;;;;;;;;;26.60;51.30;;;;;;5050799;28;19943;-70
2023/10/31 13:44:06;;;;;;;;;;;26.70;50.60;;;;;;5049031;28;19925;-70
2023/10/31 13:46:31;;;;;;;;;;;26.70;50.50;;;;;;5049587;28;20438;-71
2023/10/31 13:48:57;;;;;;;;;;;26.80;50.40;;;;;;5051457;28;19932;-72
2023/10/31 13:51:22;;;;;;;;;;;26.90;50.40;;;;;;5053036;28;20008;-70
2023/10/31 13:53:50;;;;;;;;;;;27.00;50.20;;;;;;5051443;28;19987;-70
2023/10/31 13:56:15;;;;;;;;;;;27.10;50.30;;;;;;5058255;28;19959;-73
2023/10/31 13:58:41;;;;;;;;;;;27.00;50.00;;;;;;5060971;28;20578;-70
2023/10/31 14:01:06;;;;;;;;;;;27.00;50.00;;;;;;5038370;28;19946;-70
2023/10/31 14:03:32;;;;;;;;;;;26.90;50.10;;;;;;5047915;28;19943;-71
2023/10/31 14:05:57;;;;;;;;;;;26.80;49.60;;;;;;5054746;28;19944;-71
2023/10/31 14:08:22;;;;;;;;;;;26.60;49.80;;;;;;5053340;28;20015;-70
2023/10/31 14:10:48;;;;;;;;;;;26.40;50.10;;;;;;5051640;28;20343;-73
2023/10/31 14:13:13;;;;;;;;;;;26.20;51.00;;;;;;5047666;28;19974;-71
2023/10/31 14:15:39;;;;;;;;;;;25.90;50.30;;;;;;5054175;28;19928;-70